sensor_id;sensor_type;location;lat;lon;timestamp;P1;durP1;ratioP1;P2;durP2;ratioP2
80705;SDS011;70229;48.010;7.852;2024-01-30T00:01:29;6.45;;;1.30;;
80705;SDS011;70229;48.010;7.852;2024-01-30T00:03:54;3.05;;;1.38;;
80705;SDS011;70229;48.010;7.852;2024-01-30T00:06:20;5.80;;;1.40;;
80705;SDS011;70229;48.010;7.852;2024-01-30T00:08:46;3.63;;;0.80;;
80705;SDS011;70229;48.010;7.852;2024-01-30T00:11:14;2.33;;;1.00;;
80705;SDS011;70229;48.010;7.852;2024-01-30T00:13:40;2.17;;;0.73;;
80705;SDS011;70229;48.010;7.852;2024-01-30T00:16:06;2.53;;;0.95;;
80705;SDS011;70229;48.010;7.852;2024-01-30T00:18:32;4.45;;;1.45;;
80705;SDS011;70229;48.010;7.852;2024-01-30T00:20:57;2.83;;;1.45;;
80705;SDS011;70229;48.010;7.852;2024-01-30T00:23:23;3.47;;;1.25;;
80705;SDS011;70229;48.010;7.852;2024-01-30T00:25:49;2.95;;;1.50;;
80705;SDS011;70229;48.010;7.852;2024-01-30T00:28:15;3.17;;;1.58;;
80705;SDS011;70229;48.010;7.852;2024-01-30T00:30:40;5.45;;;1.08;;
80705;SDS011;70229;48.010;7.852;2024-01-30T00:33:06;5.47;;;1.65;;
80705;SDS011;70229;48.010;7.852;2024-01-30T00:35:32;4.30;;;1.30;;
80705;SDS011;70229;48.010;7.852;2024-01-30T00:37:58;2.60;;;0.95;;
80705;SDS011;70229;48.010;7.852;2024-01-30T00:40:24;2.17;;;0.82;;
80705;SDS011;70229;48.010;7.852;2024-01-30T00:42:49;2.33;;;0.77;;
80705;SDS011;70229;48.010;7.852;2024-01-30T00:45:15;2.90;;;1.27;;
80705;SDS011;70229;48.010;7.852;2024-01-30T00:47:41;3.15;;;1.27;;
80705;SDS011;70229;48.010;7.852;2024-01-30T00:50:07;4.72;;;1.52;;
80705;SDS011;70229;48.010;7.852;2024-01-30T00:52:33;2.50;;;1.27;;
80705;SDS011;70229;48.010;7.852;2024-01-30T00:54:59;2.40;;;1.00;;
80705;SDS011;70229;48.010;7.852;2024-01-30T00:57:25;2.17;;;1.00;;
80705;SDS011;70229;48.010;7.852;2024-01-30T00:59:50;6.10;;;1.40;;
80705;SDS011;70229;48.010;7.852;2024-01-30T01:02:16;2.30;;;1.00;;
80705;SDS011;70229;48.010;7.852;2024-01-30T01:04:44;3.47;;;1.55;;
80705;SDS011;70229;48.010;7.852;2024-01-30T01:07:10;2.03;;;0.93;;
80705;SDS011;70229;48.010;7.852;2024-01-30T01:09:36;3.40;;;1.30;;
80705;SDS011;70229;48.010;7.852;2024-01-30T01:12:02;4.25;;;1.55;;
80705;SDS011;70229;48.010;7.852;2024-01-30T01:14:28;2.70;;;1.50;;
80705;SDS011;70229;48.010;7.852;2024-01-30T01:16:54;3.42;;;1.50;;
80705;SDS011;70229;48.010;7.852;2024-01-30T01:19:19;2.53;;;1.20;;
80705;SDS011;70229;48.010;7.852;2024-01-30T01:21:45;4.15;;;1.55;;
80705;SDS011;70229;48.010;7.852;2024-01-30T01:24:11;2.33;;;0.80;;
80705;SDS011;70229;48.010;7.852;2024-01-30T01:26:36;2.00;;;0.82;;
80705;SDS011;70229;48.010;7.852;2024-01-30T01:29:02;3.28;;;1.35;;
80705;SDS011;70229;48.010;7.852;2024-01-30T01:31:34;2.65;;;1.13;;
80705;SDS011;70229;48.010;7.852;2024-01-30T01:34:11;4.68;;;1.63;;
80705;SDS011;70229;48.010;7.852;2024-01-30T01:36:38;3.20;;;1.50;;
80705;SDS011;70229;48.010;7.852;2024-01-30T01:39:04;4.45;;;1.33;;
80705;SDS011;70229;48.010;7.852;2024-01-30T01:41:30;4.80;;;1.60;;
80705;SDS011;70229;48.010;7.852;2024-01-30T01:43:57;2.53;;;1.15;;
80705;SDS011;70229;48.010;7.852;2024-01-30T01:46:22;4.18;;;1.75;;
80705;SDS011;70229;48.010;7.852;2024-01-30T01:48:49;2.88;;;1.17;;
80705;SDS011;70229;48.010;7.852;2024-01-30T01:51:15;2.15;;;1.05;;
80705;SDS011;70229;48.010;7.852;2024-01-30T01:53:41;3.28;;;1.30;;
80705;SDS011;70229;48.010;7.852;2024-01-30T01:56:07;3.05;;;1.02;;
80705;SDS011;70229;48.010;7.852;2024-01-30T01:58:33;4.90;;;2.45;;
80705;SDS011;70229;48.010;7.852;2024-01-30T02:00:59;4.18;;;1.65;;
80705;SDS011;70229;48.010;7.852;2024-01-30T02:03:24;2.70;;;1.13;;
80705;SDS011;70229;48.010;7.852;2024-01-30T02:05:51;5.57;;;1.70;;
80705;SDS011;70229;48.010;7.852;2024-01-30T02:08:17;2.60;;;0.95;;
80705;SDS011;70229;48.010;7.852;2024-01-30T02:10:42;1.95;;;0.93;;
80705;SDS011;70229;48.010;7.852;2024-01-30T02:13:08;3.75;;;1.33;;
80705;SDS011;70229;48.010;7.852;2024-01-30T02:15:33;2.95;;;1.52;;
80705;SDS011;70229;48.010;7.852;2024-01-30T02:17:59;2.13;;;1.17;;
80705;SDS011;70229;48.010;7.852;2024-01-30T02:20:24;3.13;;;1.65;;
80705;SDS011;70229;48.010;7.852;2024-01-30T02:22:52;2.95;;;1.10;;
80705;SDS011;70229;48.010;7.852;2024-01-30T02:25:29;2.08;;;0.90;;
80705;SDS011;70229;48.010;7.852;2024-01-30T02:30:21;3.10;;;1.48;;
80705;SDS011;70229;48.010;7.852;2024-01-30T02:32:47;9.88;;;1.73;;
80705;SDS011;70229;48.010;7.852;2024-01-30T02:35:12;2.15;;;1.30;;
80705;SDS011;70229;48.010;7.852;2024-01-30T02:37:38;3.58;;;1.70;;
80705;SDS011;70229;48.010;7.852;2024-01-30T02:40:03;2.25;;;1.02;;
80705;SDS011;70229;48.010;7.852;2024-01-30T02:42:30;2.88;;;0.90;;
80705;SDS011;70229;48.010;7.852;2024-01-30T02:44:55;2.58;;;1.10;;
80705;SDS011;70229;48.010;7.852;2024-01-30T02:47:21;3.20;;;1.33;;
80705;SDS011;70229;48.010;7.852;2024-01-30T02:49:46;3.70;;;1.27;;
80705;SDS011;70229;48.010;7.852;2024-01-30T02:52:12;3.47;;;1.40;;
80705;SDS011;70229;48.010;7.852;2024-01-30T02:54:37;2.92;;;1.15;;
80705;SDS011;70229;48.010;7.852;2024-01-30T02:57:03;5.78;;;1.15;;
80705;SDS011;70229;48.010;7.852;2024-01-30T02:59:28;3.55;;;1.42;;
80705;SDS011;70229;48.010;7.852;2024-01-30T03:01:54;2.63;;;1.25;;
80705;SDS011;70229;48.010;7.852;2024-01-30T03:04:20;3.90;;;1.90;;
80705;SDS011;70229;48.010;7.852;2024-01-30T03:06:45;2.08;;;0.95;;
80705;SDS011;70229;48.010;7.852;2024-01-30T03:09:12;4.38;;;1.92;;
80705;SDS011;70229;48.010;7.852;2024-01-30T03:11:38;2.65;;;1.17;;
80705;SDS011;70229;48.010;7.852;2024-01-30T03:14:04;3.17;;;1.67;;
80705;SDS011;70229;48.010;7.852;2024-01-30T03:16:29;4.57;;;1.60;;
80705;SDS011;70229;48.010;7.852;2024-01-30T03:18:55;4.28;;;1.15;;
80705;SDS011;70229;48.010;7.852;2024-01-30T03:21:20;2.75;;;1.27;;
80705;SDS011;70229;48.010;7.852;2024-01-30T03:23:46;4.05;;;1.40;;
80705;SDS011;70229;48.010;7.852;2024-01-30T03:26:12;3.40;;;1.73;;
80705;SDS011;70229;48.010;7.852;2024-01-30T03:28:38;2.90;;;1.33;;
80705;SDS011;70229;48.010;7.852;2024-01-30T03:31:03;3.17;;;1.30;;
80705;SDS011;70229;48.010;7.852;2024-01-30T03:33:29;4.00;;;1.52;;
80705;SDS011;70229;48.010;7.852;2024-01-30T03:35:54;3.70;;;1.48;;
80705;SDS011;70229;48.010;7.852;2024-01-30T03:38:20;4.55;;;1.50;;
80705;SDS011;70229;48.010;7.852;2024-01-30T03:40:45;3.28;;;1.48;;
80705;SDS011;70229;48.010;7.852;2024-01-30T03:43:11;3.58;;;1.55;;
80705;SDS011;70229;48.010;7.852;2024-01-30T03:45:37;2.97;;;1.50;;
80705;SDS011;70229;48.010;7.852;2024-01-30T03:48:02;4.20;;;2.08;;
80705;SDS011;70229;48.010;7.852;2024-01-30T03:50:28;4.85;;;1.80;;
80705;SDS011;70229;48.010;7.852;2024-01-30T03:52:54;2.75;;;1.15;;
80705;SDS011;70229;48.010;7.852;2024-01-30T03:55:19;3.75;;;1.92;;
80705;SDS011;70229;48.010;7.852;2024-01-30T03:57:45;2.63;;;1.40;;
80705;SDS011;70229;48.010;7.852;2024-01-30T04:00:10;2.97;;;1.60;;
80705;SDS011;70229;48.010;7.852;2024-01-30T04:02:36;4.03;;;2.28;;
80705;SDS011;70229;48.010;7.852;2024-01-30T04:05:02;3.85;;;1.45;;
80705;SDS011;70229;48.010;7.852;2024-01-30T04:07:28;3.95;;;1.38;;
80705;SDS011;70229;48.010;7.852;2024-01-30T04:09:54;3.33;;;1.70;;
80705;SDS011;70229;48.010;7.852;2024-01-30T04:12:19;4.93;;;2.17;;
80705;SDS011;70229;48.010;7.852;2024-01-30T04:14:45;4.30;;;1.67;;
80705;SDS011;70229;48.010;7.852;2024-01-30T04:17:11;3.63;;;1.50;;
80705;SDS011;70229;48.010;7.852;2024-01-30T04:19:37;3.67;;;1.42;;
80705;SDS011;70229;48.010;7.852;2024-01-30T04:22:03;3.53;;;1.88;;
80705;SDS011;70229;48.010;7.852;2024-01-30T04:24:29;3.08;;;1.50;;
80705;SDS011;70229;48.010;7.852;2024-01-30T04:26:54;3.60;;;2.03;;
80705;SDS011;70229;48.010;7.852;2024-01-30T04:29:20;7.72;;;1.67;;
80705;SDS011;70229;48.010;7.852;2024-01-30T04:31:47;4.63;;;1.70;;
80705;SDS011;70229;48.010;7.852;2024-01-30T04:34:13;3.50;;;1.55;;
80705;SDS011;70229;48.010;7.852;2024-01-30T04:36:38;4.20;;;1.58;;
80705;SDS011;70229;48.010;7.852;2024-01-30T04:39:04;4.10;;;1.65;;
80705;SDS011;70229;48.010;7.852;2024-01-30T04:41:29;3.15;;;1.88;;
80705;SDS011;70229;48.010;7.852;2024-01-30T04:43:56;4.28;;;1.83;;
80705;SDS011;70229;48.010;7.852;2024-01-30T04:46:22;4.63;;;1.48;;
80705;SDS011;70229;48.010;7.852;2024-01-30T04:48:48;4.85;;;1.88;;
80705;SDS011;70229;48.010;7.852;2024-01-30T04:51:13;3.25;;;1.20;;
80705;SDS011;70229;48.010;7.852;2024-01-30T04:53:39;5.68;;;1.75;;
80705;SDS011;70229;48.010;7.852;2024-01-30T04:56:05;3.28;;;1.20;;
80705;SDS011;70229;48.010;7.852;2024-01-30T04:58:30;3.13;;;1.52;;
80705;SDS011;70229;48.010;7.852;2024-01-30T05:00:56;5.35;;;1.80;;
80705;SDS011;70229;48.010;7.852;2024-01-30T05:03:22;3.08;;;1.55;;
80705;SDS011;70229;48.010;7.852;2024-01-30T05:05:48;4.03;;;1.73;;
80705;SDS011;70229;48.010;7.852;2024-01-30T05:08:14;2.65;;;1.27;;
80705;SDS011;70229;48.010;7.852;2024-01-30T05:10:39;4.93;;;2.25;;
80705;SDS011;70229;48.010;7.852;2024-01-30T05:13:05;4.78;;;1.42;;
80705;SDS011;70229;48.010;7.852;2024-01-30T05:15:31;5.20;;;2.55;;
80705;SDS011;70229;48.010;7.852;2024-01-30T05:17:56;5.50;;;1.70;;
80705;SDS011;70229;48.010;7.852;2024-01-30T05:20:22;5.72;;;2.20;;
80705;SDS011;70229;48.010;7.852;2024-01-30T05:22:47;10.68;;;2.28;;
80705;SDS011;70229;48.010;7.852;2024-01-30T05:25:13;3.17;;;1.17;;
80705;SDS011;70229;48.010;7.852;2024-01-30T05:27:38;2.78;;;1.08;;
80705;SDS011;70229;48.010;7.852;2024-01-30T05:30:05;2.58;;;1.10;;
80705;SDS011;70229;48.010;7.852;2024-01-30T05:32:31;3.10;;;1.48;;
80705;SDS011;70229;48.010;7.852;2024-01-30T05:34:57;3.25;;;1.33;;
80705;SDS011;70229;48.010;7.852;2024-01-30T05:37:22;4.82;;;1.60;;
80705;SDS011;70229;48.010;7.852;2024-01-30T05:39:48;3.45;;;2.25;;
80705;SDS011;70229;48.010;7.852;2024-01-30T05:42:14;7.55;;;2.13;;
80705;SDS011;70229;48.010;7.852;2024-01-30T05:44:41;4.75;;;2.05;;
80705;SDS011;70229;48.010;7.852;2024-01-30T05:47:07;4.88;;;2.15;;
80705;SDS011;70229;48.010;7.852;2024-01-30T05:49:33;3.97;;;1.77;;
80705;SDS011;70229;48.010;7.852;2024-01-30T05:51:58;3.33;;;1.55;;
80705;SDS011;70229;48.010;7.852;2024-01-30T05:54:24;3.88;;;1.83;;
80705;SDS011;70229;48.010;7.852;2024-01-30T05:56:49;4.30;;;1.88;;
80705;SDS011;70229;48.010;7.852;2024-01-30T05:59:15;2.40;;;1.20;;
80705;SDS011;70229;48.010;7.852;2024-01-30T06:01:46;3.65;;;1.52;;
80705;SDS011;70229;48.010;7.852;2024-01-30T06:04:13;3.75;;;2.03;;
80705;SDS011;70229;48.010;7.852;2024-01-30T06:06:39;7.18;;;2.28;;
80705;SDS011;70229;48.010;7.852;2024-01-30T06:09:05;3.70;;;1.58;;
80705;SDS011;70229;48.010;7.852;2024-01-30T06:11:30;4.65;;;1.98;;
80705;SDS011;70229;48.010;7.852;2024-01-30T06:13:56;3.55;;;1.65;;
80705;SDS011;70229;48.010;7.852;2024-01-30T06:16:22;3.67;;;1.90;;
80705;SDS011;70229;48.010;7.852;2024-01-30T06:18:47;4.38;;;2.63;;
80705;SDS011;70229;48.010;7.852;2024-01-30T06:21:13;4.18;;;1.90;;
80705;SDS011;70229;48.010;7.852;2024-01-30T06:23:39;4.95;;;2.13;;
80705;SDS011;70229;48.010;7.852;2024-01-30T06:26:06;3.72;;;1.88;;
80705;SDS011;70229;48.010;7.852;2024-01-30T06:28:32;5.60;;;2.92;;
80705;SDS011;70229;48.010;7.852;2024-01-30T06:30:57;4.80;;;2.28;;
80705;SDS011;70229;48.010;7.852;2024-01-30T06:33:25;8.18;;;2.35;;
80705;SDS011;70229;48.010;7.852;2024-01-30T06:35:51;5.15;;;1.92;;
80705;SDS011;70229;48.010;7.852;2024-01-30T06:38:16;6.28;;;2.60;;
80705;SDS011;70229;48.010;7.852;2024-01-30T06:40:42;5.88;;;2.47;;
80705;SDS011;70229;48.010;7.852;2024-01-30T06:43:08;8.70;;;2.33;;
80705;SDS011;70229;48.010;7.852;2024-01-30T06:45:33;7.80;;;3.78;;
80705;SDS011;70229;48.010;7.852;2024-01-30T06:48:00;6.45;;;2.38;;
80705;SDS011;70229;48.010;7.852;2024-01-30T06:50:25;6.40;;;2.53;;
80705;SDS011;70229;48.010;7.852;2024-01-30T06:52:51;8.20;;;3.17;;
80705;SDS011;70229;48.010;7.852;2024-01-30T06:55:17;4.85;;;1.98;;
80705;SDS011;70229;48.010;7.852;2024-01-30T06:57:43;5.57;;;2.85;;
80705;SDS011;70229;48.010;7.852;2024-01-30T07:00:09;5.70;;;2.60;;
80705;SDS011;70229;48.010;7.852;2024-01-30T07:02:35;5.93;;;2.47;;
80705;SDS011;70229;48.010;7.852;2024-01-30T07:05:01;6.80;;;2.28;;
80705;SDS011;70229;48.010;7.852;2024-01-30T07:07:27;5.05;;;2.20;;
80705;SDS011;70229;48.010;7.852;2024-01-30T07:09:53;8.77;;;2.85;;
80705;SDS011;70229;48.010;7.852;2024-01-30T07:12:21;5.25;;;1.88;;
80705;SDS011;70229;48.010;7.852;2024-01-30T07:14:49;4.53;;;2.42;;
80705;SDS011;70229;48.010;7.852;2024-01-30T07:17:15;8.38;;;2.80;;
80705;SDS011;70229;48.010;7.852;2024-01-30T07:19:41;5.10;;;3.15;;
80705;SDS011;70229;48.010;7.852;2024-01-30T07:22:06;5.00;;;3.20;;
80705;SDS011;70229;48.010;7.852;2024-01-30T07:24:32;7.43;;;2.00;;
80705;SDS011;70229;48.010;7.852;2024-01-30T07:26:58;4.47;;;2.28;;
80705;SDS011;70229;48.010;7.852;2024-01-30T07:29:24;6.28;;;2.75;;
80705;SDS011;70229;48.010;7.852;2024-01-30T07:31:49;6.43;;;3.40;;
80705;SDS011;70229;48.010;7.852;2024-01-30T07:34:15;6.82;;;2.65;;
80705;SDS011;70229;48.010;7.852;2024-01-30T07:36:41;5.10;;;2.13;;
80705;SDS011;70229;48.010;7.852;2024-01-30T07:39:06;4.82;;;2.08;;
80705;SDS011;70229;48.010;7.852;2024-01-30T07:41:32;6.38;;;2.65;;
80705;SDS011;70229;48.010;7.852;2024-01-30T07:43:58;5.75;;;2.20;;
80705;SDS011;70229;48.010;7.852;2024-01-30T07:46:23;4.90;;;2.53;;
80705;SDS011;70229;48.010;7.852;2024-01-30T07:48:49;5.97;;;2.50;;
80705;SDS011;70229;48.010;7.852;2024-01-30T07:51:14;9.00;;;3.08;;
80705;SDS011;70229;48.010;7.852;2024-01-30T07:53:40;5.93;;;2.28;;
80705;SDS011;70229;48.010;7.852;2024-01-30T07:56:06;6.63;;;2.80;;
80705;SDS011;70229;48.010;7.852;2024-01-30T07:58:32;5.32;;;2.83;;
80705;SDS011;70229;48.010;7.852;2024-01-30T08:00:58;5.30;;;2.67;;
80705;SDS011;70229;48.010;7.852;2024-01-30T08:03:25;4.93;;;1.90;;
80705;SDS011;70229;48.010;7.852;2024-01-30T08:05:50;5.00;;;2.33;;
80705;SDS011;70229;48.010;7.852;2024-01-30T08:08:16;6.07;;;2.33;;
80705;SDS011;70229;48.010;7.852;2024-01-30T08:10:42;5.05;;;2.65;;
80705;SDS011;70229;48.010;7.852;2024-01-30T08:13:07;8.35;;;2.83;;
80705;SDS011;70229;48.010;7.852;2024-01-30T08:15:34;7.47;;;2.92;;
80705;SDS011;70229;48.010;7.852;2024-01-30T08:17:59;5.07;;;2.65;;
80705;SDS011;70229;48.010;7.852;2024-01-30T08:20:25;4.75;;;2.65;;
80705;SDS011;70229;48.010;7.852;2024-01-30T08:22:51;4.93;;;2.63;;
80705;SDS011;70229;48.010;7.852;2024-01-30T08:25:17;5.82;;;3.35;;
80705;SDS011;70229;48.010;7.852;2024-01-30T08:27:42;5.00;;;2.45;;
80705;SDS011;70229;48.010;7.852;2024-01-30T08:30:08;8.93;;;2.75;;
80705;SDS011;70229;48.010;7.852;2024-01-30T08:32:34;5.03;;;2.42;;
80705;SDS011;70229;48.010;7.852;2024-01-30T08:35:00;5.00;;;2.25;;
80705;SDS011;70229;48.010;7.852;2024-01-30T08:37:28;3.58;;;1.80;;
80705;SDS011;70229;48.010;7.852;2024-01-30T08:39:54;5.78;;;2.67;;
80705;SDS011;70229;48.010;7.852;2024-01-30T08:42:20;9.30;;;2.75;;
80705;SDS011;70229;48.010;7.852;2024-01-30T08:44:47;4.10;;;2.10;;
80705;SDS011;70229;48.010;7.852;2024-01-30T08:47:14;9.60;;;2.55;;
80705;SDS011;70229;48.010;7.852;2024-01-30T08:49:41;4.93;;;2.22;;
80705;SDS011;70229;48.010;7.852;2024-01-30T08:52:09;6.82;;;2.67;;
80705;SDS011;70229;48.010;7.852;2024-01-30T08:54:35;7.55;;;2.20;;
80705;SDS011;70229;48.010;7.852;2024-01-30T08:57:00;7.95;;;2.55;;
80705;SDS011;70229;48.010;7.852;2024-01-30T08:59:27;4.03;;;2.20;;
80705;SDS011;70229;48.010;7.852;2024-01-30T09:01:52;5.78;;;2.80;;
80705;SDS011;70229;48.010;7.852;2024-01-30T09:04:20;4.75;;;2.17;;
80705;SDS011;70229;48.010;7.852;2024-01-30T09:06:46;5.53;;;2.45;;
80705;SDS011;70229;48.010;7.852;2024-01-30T09:09:12;4.40;;;2.05;;
80705;SDS011;70229;48.010;7.852;2024-01-30T09:11:39;4.53;;;2.38;;
80705;SDS011;70229;48.010;7.852;2024-01-30T09:14:05;5.18;;;2.47;;
80705;SDS011;70229;48.010;7.852;2024-01-30T09:16:30;4.25;;;1.95;;
80705;SDS011;70229;48.010;7.852;2024-01-30T09:18:56;5.70;;;2.28;;
80705;SDS011;70229;48.010;7.852;2024-01-30T09:21:21;6.50;;;3.03;;
80705;SDS011;70229;48.010;7.852;2024-01-30T09:23:48;8.13;;;2.28;;
80705;SDS011;70229;48.010;7.852;2024-01-30T09:26:13;6.15;;;2.70;;
80705;SDS011;70229;48.010;7.852;2024-01-30T09:28:39;5.78;;;2.92;;
80705;SDS011;70229;48.010;7.852;2024-01-30T09:31:10;5.75;;;2.88;;
80705;SDS011;70229;48.010;7.852;2024-01-30T09:33:37;2.88;;;1.73;;
80705;SDS011;70229;48.010;7.852;2024-01-30T09:36:03;5.10;;;2.50;;
80705;SDS011;70229;48.010;7.852;2024-01-30T09:38:30;3.92;;;1.95;;
80705;SDS011;70229;48.010;7.852;2024-01-30T09:40:56;6.72;;;2.50;;
80705;SDS011;70229;48.010;7.852;2024-01-30T09:43:28;6.47;;;2.83;;
80705;SDS011;70229;48.010;7.852;2024-01-30T09:45:58;4.55;;;1.90;;
80705;SDS011;70229;48.010;7.852;2024-01-30T09:48:24;7.32;;;3.00;;
80705;SDS011;70229;48.010;7.852;2024-01-30T09:50:52;4.45;;;2.03;;
80705;SDS011;70229;48.010;7.852;2024-01-30T09:53:18;5.32;;;2.42;;
80705;SDS011;70229;48.010;7.852;2024-01-30T09:55:45;4.00;;;1.90;;
80705;SDS011;70229;48.010;7.852;2024-01-30T09:58:12;4.05;;;2.15;;
80705;SDS011;70229;48.010;7.852;2024-01-30T10:00:38;5.18;;;2.20;;
80705;SDS011;70229;48.010;7.852;2024-01-30T10:03:04;6.60;;;2.78;;
80705;SDS011;70229;48.010;7.852;2024-01-30T10:05:29;5.35;;;1.88;;
80705;SDS011;70229;48.010;7.852;2024-01-30T10:07:58;6.65;;;3.17;;
80705;SDS011;70229;48.010;7.852;2024-01-30T10:10:24;4.45;;;2.08;;
80705;SDS011;70229;48.010;7.852;2024-01-30T10:12:50;6.63;;;2.08;;
80705;SDS011;70229;48.010;7.852;2024-01-30T10:15:15;4.50;;;2.50;;
80705;SDS011;70229;48.010;7.852;2024-01-30T10:17:44;6.30;;;2.20;;
80705;SDS011;70229;48.010;7.852;2024-01-30T10:20:10;6.28;;;2.63;;
80705;SDS011;70229;48.010;7.852;2024-01-30T10:22:36;4.47;;;2.22;;
80705;SDS011;70229;48.010;7.852;2024-01-30T10:25:02;8.23;;;2.78;;
80705;SDS011;70229;48.010;7.852;2024-01-30T17:39:24;10.15;;;3.97;;
80705;SDS011;70229;48.010;7.852;2024-01-30T17:41:50;9.23;;;4.40;;
80705;SDS011;70229;48.010;7.852;2024-01-30T17:44:16;6.40;;;3.53;;
80705;SDS011;70229;48.010;7.852;2024-01-30T17:46:43;7.15;;;4.20;;
80705;SDS011;70229;48.010;7.852;2024-01-30T17:49:08;11.77;;;5.38;;
80705;SDS011;70229;48.010;7.852;2024-01-30T17:51:37;7.18;;;4.25;;
80705;SDS011;70229;48.010;7.852;2024-01-30T17:54:04;10.77;;;5.57;;
80705;SDS011;70229;48.010;7.852;2024-01-30T17:56:29;8.13;;;5.85;;
80705;SDS011;70229;48.010;7.852;2024-01-30T17:58:55;10.52;;;5.90;;
80705;SDS011;70229;48.010;7.852;2024-01-30T18:01:20;9.05;;;6.07;;
80705;SDS011;70229;48.010;7.852;2024-01-30T18:03:46;12.55;;;6.85;;
80705;SDS011;70229;48.010;7.852;2024-01-30T18:06:15;16.92;;;6.28;;
80705;SDS011;70229;48.010;7.852;2024-01-30T18:08:41;11.00;;;6.53;;
80705;SDS011;70229;48.010;7.852;2024-01-30T18:11:06;11.70;;;5.45;;
80705;SDS011;70229;48.010;7.852;2024-01-30T18:13:32;8.27;;;5.10;;
80705;SDS011;70229;48.010;7.852;2024-01-30T18:15:57;8.88;;;5.38;;
80705;SDS011;70229;48.010;7.852;2024-01-30T18:18:23;9.32;;;6.28;;
80705;SDS011;70229;48.010;7.852;2024-01-30T18:20:50;9.93;;;4.53;;
80705;SDS011;70229;48.010;7.852;2024-01-30T18:23:17;8.05;;;5.25;;
80705;SDS011;70229;48.010;7.852;2024-01-30T18:25:43;10.75;;;4.78;;
80705;SDS011;70229;48.010;7.852;2024-01-30T18:28:08;7.07;;;4.07;;
80705;SDS011;70229;48.010;7.852;2024-01-30T18:30:34;7.47;;;4.28;;
80705;SDS011;70229;48.010;7.852;2024-01-30T18:33:00;7.70;;;4.22;;
80705;SDS011;70229;48.010;7.852;2024-01-30T18:35:27;9.20;;;5.03;;
80705;SDS011;70229;48.010;7.852;2024-01-30T18:37:53;7.82;;;4.03;;
80705;SDS011;70229;48.010;7.852;2024-01-30T18:40:19;7.45;;;4.55;;
80705;SDS011;70229;48.010;7.852;2024-01-30T18:42:45;7.55;;;3.97;;
80705;SDS011;70229;48.010;7.852;2024-01-30T18:45:10;13.88;;;5.22;;
80705;SDS011;70229;48.010;7.852;2024-01-30T18:47:36;7.97;;;4.38;;
80705;SDS011;70229;48.010;7.852;2024-01-30T18:50:03;7.75;;;4.15;;
80705;SDS011;70229;48.010;7.852;2024-01-30T18:52:29;6.82;;;4.18;;
80705;SDS011;70229;48.010;7.852;2024-01-30T18:54:54;6.03;;;3.78;;
80705;SDS011;70229;48.010;7.852;2024-01-30T18:57:20;7.78;;;4.07;;
80705;SDS011;70229;48.010;7.852;2024-01-30T18:59:45;6.97;;;4.28;;
80705;SDS011;70229;48.010;7.852;2024-01-30T19:02:11;9.05;;;4.97;;
80705;SDS011;70229;48.010;7.852;2024-01-30T19:04:37;7.97;;;4.75;;
80705;SDS011;70229;48.010;7.852;2024-01-30T19:07:02;7.50;;;4.50;;
80705;SDS011;70229;48.010;7.852;2024-01-30T19:09:28;7.30;;;4.40;;
80705;SDS011;70229;48.010;7.852;2024-01-30T19:11:54;8.68;;;5.72;;
80705;SDS011;70229;48.010;7.852;2024-01-30T19:14:19;7.95;;;5.07;;
80705;SDS011;70229;48.010;7.852;2024-01-30T19:16:45;6.47;;;5.00;;
80705;SDS011;70229;48.010;7.852;2024-01-30T19:19:11;10.27;;;5.53;;
80705;SDS011;70229;48.010;7.852;2024-01-30T19:21:36;7.95;;;4.88;;
80705;SDS011;70229;48.010;7.852;2024-01-30T19:24:02;8.98;;;5.30;;
80705;SDS011;70229;48.010;7.852;2024-01-30T19:26:28;15.43;;;6.18;;
80705;SDS011;70229;48.010;7.852;2024-01-30T19:28:53;7.88;;;5.30;;
80705;SDS011;70229;48.010;7.852;2024-01-30T19:31:19;7.88;;;5.97;;
80705;SDS011;70229;48.010;7.852;2024-01-30T19:33:45;11.25;;;7.10;;
80705;SDS011;70229;48.010;7.852;2024-01-30T19:36:11;9.20;;;6.28;;
80705;SDS011;70229;48.010;7.852;2024-01-30T19:38:36;7.20;;;5.28;;
80705;SDS011;70229;48.010;7.852;2024-01-30T19:41:02;11.02;;;4.75;;
80705;SDS011;70229;48.010;7.852;2024-01-30T19:43:29;9.35;;;5.47;;
80705;SDS011;70229;48.010;7.852;2024-01-30T19:45:55;7.45;;;4.47;;
80705;SDS011;70229;48.010;7.852;2024-01-30T19:48:21;6.55;;;4.53;;
80705;SDS011;70229;48.010;7.852;2024-01-30T19:50:47;7.97;;;4.65;;
80705;SDS011;70229;48.010;7.852;2024-01-30T19:53:12;7.47;;;4.72;;
80705;SDS011;70229;48.010;7.852;2024-01-30T19:55:38;6.50;;;4.03;;
80705;SDS011;70229;48.010;7.852;2024-01-30T19:58:03;8.25;;;4.82;;
80705;SDS011;70229;48.010;7.852;2024-01-30T20:00:29;9.57;;;5.32;;
80705;SDS011;70229;48.010;7.852;2024-01-30T20:02:55;7.35;;;5.05;;
80705;SDS011;70229;48.010;7.852;2024-01-30T20:05:21;7.13;;;4.18;;
80705;SDS011;70229;48.010;7.852;2024-01-30T20:07:48;12.38;;;5.20;;
80705;SDS011;70229;48.010;7.852;2024-01-30T20:10:13;7.55;;;4.25;;
80705;SDS011;70229;48.010;7.852;2024-01-30T20:12:39;6.28;;;4.78;;
80705;SDS011;70229;48.010;7.852;2024-01-30T20:15:06;7.97;;;4.78;;
80705;SDS011;70229;48.010;7.852;2024-01-30T20:17:34;10.35;;;5.53;;
80705;SDS011;70229;48.010;7.852;2024-01-30T20:20:00;7.18;;;4.80;;
80705;SDS011;70229;48.010;7.852;2024-01-30T20:22:26;7.75;;;5.05;;
80705;SDS011;70229;48.010;7.852;2024-01-30T20:24:52;6.70;;;4.25;;
80705;SDS011;70229;48.010;7.852;2024-01-30T20:27:18;9.48;;;4.50;;
80705;SDS011;70229;48.010;7.852;2024-01-30T20:29:45;5.82;;;3.88;;
80705;SDS011;70229;48.010;7.852;2024-01-30T20:32:10;7.65;;;4.05;;
80705;SDS011;70229;48.010;7.852;2024-01-30T20:34:36;6.80;;;3.88;;
80705;SDS011;70229;48.010;7.852;2024-01-30T20:37:02;7.30;;;4.03;;
80705;SDS011;70229;48.010;7.852;2024-01-30T20:39:27;8.75;;;5.18;;
80705;SDS011;70229;48.010;7.852;2024-01-30T20:41:53;6.57;;;3.97;;
80705;SDS011;70229;48.010;7.852;2024-01-30T20:44:18;7.50;;;4.95;;
80705;SDS011;70229;48.010;7.852;2024-01-30T20:46:44;8.45;;;4.60;;
80705;SDS011;70229;48.010;7.852;2024-01-30T20:49:11;6.35;;;4.00;;
80705;SDS011;70229;48.010;7.852;2024-01-30T20:51:36;7.45;;;4.72;;
80705;SDS011;70229;48.010;7.852;2024-01-30T20:54:02;7.15;;;4.43;;
80705;SDS011;70229;48.010;7.852;2024-01-30T20:56:27;7.40;;;4.63;;
80705;SDS011;70229;48.010;7.852;2024-01-30T20:58:53;10.48;;;5.78;;
80705;SDS011;70229;48.010;7.852;2024-01-30T21:01:18;9.50;;;5.25;;
80705;SDS011;70229;48.010;7.852;2024-01-30T21:03:44;8.38;;;5.43;;
80705;SDS011;70229;48.010;7.852;2024-01-30T21:06:11;11.35;;;8.32;;
80705;SDS011;70229;48.010;7.852;2024-01-30T21:08:38;10.60;;;8.57;;
80705;SDS011;70229;48.010;7.852;2024-01-30T21:11:07;9.48;;;6.65;;
80705;SDS011;70229;48.010;7.852;2024-01-30T21:13:35;12.15;;;8.13;;
80705;SDS011;70229;48.010;7.852;2024-01-30T21:16:01;14.23;;;9.15;;
80705;SDS011;70229;48.010;7.852;2024-01-30T21:18:28;9.82;;;6.97;;
80705;SDS011;70229;48.010;7.852;2024-01-30T21:20:53;69.53;;;56.72;;
80705;SDS011;70229;48.010;7.852;2024-01-30T21:23:20;36.25;;;29.15;;
80705;SDS011;70229;48.010;7.852;2024-01-30T21:25:45;26.65;;;18.73;;
80705;SDS011;70229;48.010;7.852;2024-01-30T21:28:11;26.20;;;21.00;;
80705;SDS011;70229;48.010;7.852;2024-01-30T21:30:37;11.32;;;8.73;;
80705;SDS011;70229;48.010;7.852;2024-01-30T21:33:03;7.32;;;5.57;;
80705;SDS011;70229;48.010;7.852;2024-01-30T21:35:28;10.98;;;7.70;;
80705;SDS011;70229;48.010;7.852;2024-01-30T21:37:54;10.02;;;6.40;;
80705;SDS011;70229;48.010;7.852;2024-01-30T21:40:20;9.10;;;5.18;;
80705;SDS011;70229;48.010;7.852;2024-01-30T21:42:45;11.32;;;9.02;;
80705;SDS011;70229;48.010;7.852;2024-01-30T21:45:12;8.73;;;5.88;;
80705;SDS011;70229;48.010;7.852;2024-01-30T21:47:38;11.25;;;7.47;;
80705;SDS011;70229;48.010;7.852;2024-01-30T21:50:04;9.32;;;6.18;;
80705;SDS011;70229;48.010;7.852;2024-01-30T21:52:30;9.38;;;6.03;;